Time;durP1;ratioP1;P1;durP2;ratioP2;P2;SDS_P1;SDS_P2;PMS_P1;PMS_P2;Temp;Humidity;BMP_temperature;BMP_pressure;BME280_temperature;BME280_humidity;BME280_pressure;Samples;Min_cycle;Max_cycle;Signal;HPM_P1;HPM_P2
2021/11/12 00:12:26;;;;;;;47.92;19.80;;;13.00;86.40;;;;;;4976609;28;20405;-76
2021/11/12 00:14:54;;;;;;;42.60;18.45;;;13.00;86.40;;;;;;4959012;28;20031;-74
2021/11/12 00:17:22;;;;;;;39.50;19.35;;;13.00;86.40;;;;;;4991163;28;20035;-76
2021/11/12 00:19:51;;;;;;;38.33;19.48;;;13.00;86.40;;;;;;4958941;28;20058;-75
2021/11/12 00:22:20;;;;;;;38.63;18.83;;;13.00;86.90;;;;;;4975996;28;20035;-75
2021/11/12 00:24:45;;;;;;;35.42;20.75;;;13.00;86.50;;;;;;4976005;28;20015;-75
2021/11/12 00:27:11;;;;;;;35.47;19.40;;;12.90;86.60;;;;;;4958518;28;20022;-76
2021/11/12 00:29:48;;;;;;;35.42;19.25;;;12.90;86.70;;;;;;4958704;28;20027;-75
2021/11/12 00:32:39;;;;;;;30.17;19.02;;;12.90;86.90;;;;;;4958237;28;20029;-75
2021/11/12 00:35:15;;;;;;;34.65;20.83;;;12.90;87.10;;;;;;4958596;28;20029;-76
2021/11/12 00:37:52;;;;;;;32.05;19.05;;;12.80;87.10;;;;;;4958569;28;20497;-75
2021/11/12 00:40:26;;;;;;;29.65;19.45;;;12.80;87.20;;;;;;4990531;28;20551;-75
2021/11/12 00:45:21;;;;;;;29.77;19.73;;;12.80;87.40;;;;;;4975719;28;20527;-76
2021/11/12 00:47:59;;;;;;;29.77;19.55;;;12.80;87.40;;;;;;4958221;28;20019;-76
2021/11/12 00:50:34;;;;;;;28.25;19.63;;;12.80;87.50;;;;;;4958317;28;20027;-75
2021/11/12 00:55:28;;;;;;;27.52;19.70;;;12.80;87.50;;;;;;4975543;28;20030;-75
2021/11/12 00:57:55;;;;;;;29.27;19.35;;;12.80;87.50;;;;;;4958474;28;20023;-75
2021/11/12 01:00:22;;;;;;;28.15;19.15;;;12.80;87.50;;;;;;4958088;28;20059;-75
2021/11/12 01:02:48;;;;;;;28.27;20.17;;;12.80;87.50;;;;;;4975313;28;20388;-75
2021/11/12 01:05:15;;;;;;;28.42;19.85;;;12.80;87.50;;;;;;4957739;28;20033;-76
2021/11/12 01:07:40;;;;;;;28.52;20.15;;;12.80;87.60;;;;;;4975354;28;20026;-75
2021/11/12 01:10:09;;;;;;;26.65;19.25;;;12.80;87.60;;;;;;4956819;28;20026;-76
2021/11/12 01:12:36;;;;;;;26.23;20.15;;;12.80;87.60;;;;;;4957950;28;20031;-75
2021/11/12 01:15:04;;;;;;;28.80;18.92;;;12.80;87.60;;;;;;4975038;28;20078;-75
2021/11/12 01:17:30;;;;;;;29.55;19.42;;;12.80;87.60;;;;;;4974965;28;20022;-75
2021/11/12 01:19:56;;;;;;;26.27;19.60;;;12.80;87.60;;;;;;4974991;28;20089;-75
2021/11/12 01:22:22;;;;;;;29.90;20.33;;;12.80;87.60;;;;;;4957492;28;20027;-75
2021/11/12 01:24:49;;;;;;;27.60;19.80;;;12.80;87.60;;;;;;4974978;28;20019;-75
2021/11/12 01:27:15;;;;;;;27.00;19.25;;;12.80;87.70;;;;;;4974645;28;20026;-75
2021/11/12 01:29:41;;;;;;;27.02;19.50;;;12.80;87.60;;;;;;4957455;28;20076;-75
2021/11/12 01:32:19;;;;;;;27.08;19.55;;;12.80;87.70;;;;;;4956933;28;20027;-75
2021/11/12 01:34:48;;;;;;;26.98;18.67;;;12.80;87.70;;;;;;4957622;28;20460;-74
2021/11/12 01:37:17;;;;;;;27.98;19.85;;;12.80;87.70;;;;;;4957184;28;20118;-76
2021/11/12 01:39:43;;;;;;;28.02;19.67;;;12.80;87.70;;;;;;4989476;28;20045;-75
2021/11/12 01:42:08;;;;;;;29.55;20.33;;;12.80;87.70;;;;;;4974690;28;20113;-75
2021/11/12 01:44:45;;;;;;;28.02;20.42;;;12.80;87.70;;;;;;4957357;28;20027;-75
2021/11/12 01:47:26;;;;;;;27.48;19.52;;;12.80;87.70;;;;;;4957056;28;20023;-75
2021/11/12 01:49:54;;;;;;;29.67;20.00;;;12.80;87.70;;;;;;4974463;28;20046;-74
2021/11/12 01:52:35;;;;;;;28.20;20.80;;;12.80;87.80;;;;;;4957196;28;20118;-75
2021/11/12 01:55:14;;;;;;;27.80;20.45;;;12.80;87.70;;;;;;4957211;28;20551;-74
2021/11/12 02:00:25;;;;;;;29.58;19.92;;;12.80;87.70;;;;;;4974417;28;20033;-75
2021/11/12 02:02:51;;;;;;;30.25;20.50;;;12.80;87.80;;;;;;4957004;28;20026;-75
2021/11/12 02:05:18;;;;;;;29.10;20.67;;;12.80;87.80;;;;;;4973110;28;20106;-75
2021/11/12 02:07:44;;;;;;;28.58;19.88;;;12.80;87.80;;;;;;4974118;28;20437;-75
2021/11/12 02:10:17;;;;;;;27.98;20.45;;;12.80;88.30;;;;;;4973927;28;20026;-75
2021/11/12 02:13:31;;;;;;;30.52;20.52;;;12.80;87.80;;;;;;4973869;28;20085;-75
2021/11/12 02:15:31;;;;;;;31.27;20.05;;;12.80;87.80;;;;;;4963297;28;20560;-75
2021/11/12 02:18:00;;;;;;;31.08;21.50;;;12.80;87.80;;;;;;4973979;28;20027;-75
2021/11/12 02:20:36;;;;;;;32.92;21.92;;;12.80;87.80;;;;;;4973823;28;20030;-75
2021/11/12 02:23:03;;;;;;;30.17;20.45;;;12.80;87.80;;;;;;4956275;28;20031;-75
2021/11/12 02:25:34;;;;;;;30.25;21.55;;;12.80;87.80;;;;;;4973709;28;20019;-76
2021/11/12 02:28:04;;;;;;;33.22;22.52;;;12.80;87.80;;;;;;4974017;28;20039;-75
2021/11/12 02:30:32;;;;;;;31.48;21.42;;;12.80;87.80;;;;;;4956496;28;20026;-75
2021/11/12 02:33:13;;;;;;;31.75;21.65;;;12.80;87.80;;;;;;4973327;28;20023;-75
2021/11/12 02:35:42;;;;;;;33.35;20.73;;;12.80;87.80;;;;;;4956365;28;20072;-75
2021/11/12 02:38:08;;;;;;;31.08;21.40;;;12.80;87.80;;;;;;4973684;28;20023;-75
2021/11/12 02:40:35;;;;;;;30.98;20.85;;;12.80;87.80;;;;;;4973409;28;20029;-75
2021/11/12 02:43:02;;;;;;;33.75;21.77;;;12.80;87.80;;;;;;4956407;28;20023;-74
2021/11/12 02:45:29;;;;;;;32.85;22.35;;;12.80;87.90;;;;;;4973472;28;20030;-75
2021/11/12 02:47:55;;;;;;;34.28;22.00;;;12.80;87.90;;;;;;4973637;28;20021;-75
2021/11/12 02:50:21;;;;;;;31.67;21.35;;;12.80;87.90;;;;;;4956293;28;20481;-75
2021/11/12 02:52:52;;;;;;;32.65;22.25;;;12.80;87.90;;;;;;4973539;28;20501;-75
2021/11/12 02:55:18;;;;;;;31.92;20.65;;;12.80;87.90;;;;;;4956059;28;20499;-74
2021/11/12 02:57:44;;;;;;;35.05;22.02;;;12.80;87.70;;;;;;4956203;28;20022;-74
2021/11/12 03:00:13;;;;;;;32.70;20.95;;;12.80;87.70;;;;;;4956202;28;20389;-75
2021/11/12 03:02:39;;;;;;;32.30;22.25;;;12.80;87.70;;;;;;4956185;28;20030;-75
2021/11/12 03:05:05;;;;;;;30.58;20.73;;;12.90;87.60;;;;;;4988349;28;20500;-75
2021/11/12 03:07:31;;;;;;;32.10;20.88;;;12.90;87.50;;;;;;4973424;28;20030;-75
2021/11/12 03:09:56;;;;;;;32.13;20.55;;;12.90;87.40;;;;;;4955994;28;20026;-75
2021/11/12 03:12:22;;;;;;;31.20;20.25;;;12.90;87.40;;;;;;4973426;28;20057;-75
2021/11/12 03:14:51;;;;;;;32.25;20.65;;;12.90;87.20;;;;;;4973396;28;20038;-75
2021/11/12 03:17:17;;;;;;;30.88;20.15;;;12.90;87.10;;;;;;4955722;28;20125;-75
2021/11/12 03:19:44;;;;;;;34.17;21.52;;;13.00;87.10;;;;;;4956028;28;20170;-74
2021/11/12 03:22:15;;;;;;;32.78;21.40;;;13.00;87.00;;;;;;4949730;28;20023;-74
2021/11/12 03:24:46;;;;;;;33.13;20.90;;;13.00;87.10;;;;;;4956198;28;20045;-75
2021/11/12 04:18:40;;;;;;;32.47;20.58;;;12.80;88.30;;;;;;4976559;28;20037;-75
2021/11/12 05:44:57;;;;;;;26.27;19.17;;;12.80;88.30;;;;;;5034363;28;20052;-80
2021/11/12 05:50:12;;;;;;;27.90;19.27;;;12.80;88.30;;;;;;5032072;28;20090;-82
2021/11/12 05:55:21;;;;;;;27.90;19.27;;;12.80;88.20;;;;;;5030795;28;20086;-83
2021/11/12 05:57:48;;;;;;;27.92;20.15;;;12.80;88.40;;;;;;5011523;28;20026;-82
2021/11/12 06:00:16;;;;;;;25.40;19.50;;;12.80;88.20;;;;;;5011557;28;20116;-81
2021/11/12 06:02:41;;;;;;;27.17;18.45;;;12.80;88.30;;;;;;5011986;28;20032;-84
2021/11/12 06:05:07;;;;;;;25.67;19.25;;;12.80;88.30;;;;;;5029149;28;20021;-82
2021/11/12 06:07:34;;;;;;;26.73;19.80;;;12.80;88.30;;;;;;5012144;28;20036;-81
2021/11/12 06:10:00;;;;;;;27.80;20.13;;;12.80;88.30;;;;;;5011955;28;20029;-83
2021/11/12 06:12:28;;;;;;;29.02;20.27;;;12.80;88.40;;;;;;5011964;28;20124;-80
2021/11/12 06:14:54;;;;;;;28.25;19.80;;;12.80;88.30;;;;;;5012047;28;20033;-84
2021/11/12 06:17:20;;;;;;;34.50;22.60;;;12.80;88.40;;;;;;5029035;28;20033;-82
2021/11/12 06:19:46;;;;;;;31.42;20.52;;;12.70;87.70;;;;;;5011926;28;20025;-83
2021/11/12 06:22:11;;;;;;;27.83;20.20;;;12.70;86.10;;;;;;5011618;28;20495;-84
2021/11/12 06:24:38;;;;;;;33.25;22.60;;;12.70;87.80;;;;;;5011660;28;20041;-82
2021/11/12 06:27:05;;;;;;;34.22;22.58;;;12.70;87.40;;;;;;5012336;28;20037;-89
2021/11/12 06:29:31;;;;;;;31.73;19.63;;;12.70;87.10;;;;;;5011668;28;20123;-87
2021/11/12 06:31:56;;;;;;;35.58;20.83;;;12.70;86.90;;;;;;5012067;28;20117;-84
2021/11/12 06:34:22;;;;;;;35.55;20.90;;;12.70;86.80;;;;;;5011920;28;20335;-86
2021/11/12 06:36:48;;;;;;;35.33;21.08;;;12.80;86.40;;;;;;5012574;28;20483;-83
2021/11/12 06:39:14;;;;;;;37.38;20.75;;;12.80;85.70;;;;;;5027704;28;20117;-82
2021/11/12 06:49:38;;;;;;;37.55;22.55;;;12.70;86.70;;;;;;5030508;28;20032;-82
2021/11/12 06:52:04;;;;;;;34.10;22.02;;;12.70;86.80;;;;;;5009859;28;20025;-83
2021/11/12 06:54:31;;;;;;;32.90;21.67;;;12.70;86.90;;;;;;5009853;28;20087;-83
2021/11/12 06:56:57;;;;;;;31.55;21.17;;;12.70;86.90;;;;;;5009484;28;20036;-83
2021/11/12 06:59:23;;;;;;;32.88;21.00;;;12.70;87.50;;;;;;5010141;28;20025;-83
2021/11/12 07:01:49;;;;;;;32.05;21.88;;;12.70;87.00;;;;;;5009287;28;20029;-80
2021/11/12 07:04:15;;;;;;;30.58;20.45;;;12.70;87.10;;;;;;5009950;28;20179;-81
2021/11/12 07:06:41;;;;;;;29.08;20.10;;;12.80;87.30;;;;;;5009411;28;20037;-79
2021/11/12 07:09:07;;;;;;;33.75;21.17;;;12.80;87.30;;;;;;5011855;28;20708;-81
2021/11/12 07:11:34;;;;;;;30.10;21.10;;;12.80;87.30;;;;;;5031117;28;20075;-81
2021/11/12 07:14:00;;;;;;;30.00;20.48;;;12.80;87.40;;;;;;5031428;28;20075;-81
2021/11/12 07:16:26;;;;;;;29.88;20.05;;;12.80;87.40;;;;;;5013412;28;20112;-81
2021/11/12 07:18:54;;;;;;;26.63;19.42;;;12.80;87.30;;;;;;5013564;28;20458;-82
2021/11/12 07:21:23;;;;;;;27.80;19.52;;;12.80;87.10;;;;;;5013703;28;20131;-82
2021/11/12 07:23:48;;;;;;;27.50;19.65;;;12.80;87.20;;;;;;5013416;28;20030;-83
2021/11/12 07:26:16;;;;;;;27.52;18.88;;;12.80;87.00;;;;;;5031318;28;20549;-82
2021/11/12 07:28:42;;;;;;;28.13;18.70;;;12.90;86.90;;;;;;5013755;28;20026;-83
2021/11/12 07:31:08;;;;;;;26.63;18.55;;;12.90;86.80;;;;;;5013715;28;20384;-80
2021/11/12 07:33:34;;;;;;;27.38;18.10;;;12.90;86.80;;;;;;5031228;28;20032;-81
2021/11/12 07:38:34;;;;;;;26.45;18.77;;;12.90;86.70;;;;;;5031973;28;20120;-82
2021/11/12 07:41:13;;;;;;;26.55;18.08;;;12.90;86.70;;;;;;5030639;28;20029;-81
2021/11/12 07:49:03;;;;;;;25.60;17.45;;;12.80;87.10;;;;;;5031539;28;20506;-82
2021/11/12 07:51:29;;;;;;;26.02;17.50;;;12.80;87.30;;;;;;5012966;28;20044;-82
2021/11/12 07:53:55;;;;;;;24.42;16.83;;;12.80;87.40;;;;;;5012879;28;20033;-81
2021/11/12 07:56:22;;;;;;;24.33;15.75;;;12.70;87.40;;;;;;5012820;28;20029;-82
2021/11/12 07:58:48;;;;;;;22.55;16.33;;;12.80;87.50;;;;;;5012868;28;20087;-80
2021/11/12 08:01:14;;;;;;;21.40;15.10;;;12.70;87.40;;;;;;5013174;28;20446;-82
2021/11/12 08:03:40;;;;;;;24.10;15.23;;;12.80;87.20;;;;;;5013478;28;20036;-81
2021/11/12 08:06:09;;;;;;;21.85;14.95;;;12.90;87.10;;;;;;5012905;28;20461;-81
2021/11/12 08:08:36;;;;;;;22.98;15.02;;;12.90;86.70;;;;;;5012962;28;20414;-82
2021/11/12 08:11:10;;;;;;;21.63;14.52;;;13.00;86.70;;;;;;5012958;28;20034;-81
2021/11/12 08:13:40;;;;;;;24.67;15.10;;;13.10;86.70;;;;;;5013019;28;20483;-82
2021/11/12 08:18:55;;;;;;;21.40;14.30;;;13.10;86.30;;;;;;5030407;28;20616;-82
2021/11/12 08:21:33;;;;;;;20.45;14.13;;;13.10;86.20;;;;;;5012292;28;20033;-82
2021/11/12 08:29:11;;;;;;;19.23;13.35;;;13.10;86.30;;;;;;5030446;28;20479;-82
2021/11/12 08:32:10;;;;;;;19.15;12.38;;;13.10;86.20;;;;;;5012188;28;20032;-80
2021/11/12 08:34:55;;;;;;;18.13;12.75;;;13.20;86.30;;;;;;5012101;28;20121;-81
2021/11/12 08:37:49;;;;;;;18.63;12.25;;;13.20;86.20;;;;;;5012321;28;20029;-82
2021/11/12 08:40:20;;;;;;;18.20;12.52;;;13.30;86.10;;;;;;5028465;28;20044;-83
2021/11/12 08:42:54;;;;;;;17.80;12.50;;;13.40;85.90;;;;;;5012231;28;20056;-80
2021/11/12 08:45:26;;;;;;;18.15;12.15;;;13.40;85.70;;;;;;5011999;28;20036;-82
2021/11/12 08:47:56;;;;;;;20.52;12.85;;;13.40;85.40;;;;;;5012346;28;20043;-82
2021/11/12 08:50:23;;;;;;;15.77;11.15;;;13.50;85.20;;;;;;5011937;28;20506;-82
2021/11/12 08:52:53;;;;;;;16.75;12.05;;;13.50;85.10;;;;;;5011580;28;20059;-82
2021/11/12 08:55:26;;;;;;;16.13;11.27;;;13.60;85.00;;;;;;5011244;28;20308;-80
2021/11/12 08:57:53;;;;;;;17.35;11.35;;;13.60;84.80;;;;;;5011593;28;20044;-82
2021/11/12 09:00:18;;;;;;;16.63;11.38;;;13.60;84.70;;;;;;5011696;28;20037;-80
2021/11/12 09:02:45;;;;;;;17.38;11.55;;;13.60;84.50;;;;;;5011870;28;20029;-82
2021/11/12 09:05:11;;;;;;;17.75;10.70;;;13.70;84.50;;;;;;5011471;28;20273;-80
2021/11/12 09:07:37;;;;;;;15.88;10.90;;;13.70;84.40;;;;;;5011854;28;20029;-82
2021/11/12 09:10:03;;;;;;;16.88;11.13;;;13.70;84.20;;;;;;5011748;28;20030;-82
2021/11/12 09:12:29;;;;;;;15.82;10.88;;;13.70;84.00;;;;;;5011911;28;20036;-81
2021/11/12 09:14:57;;;;;;;14.63;10.18;;;13.70;83.90;;;;;;5011216;28;20124;-79
2021/11/12 09:17:27;;;;;;;13.35;9.88;;;13.80;83.90;;;;;;5011362;28;20116;-82
2021/11/12 09:19:57;;;;;;;15.38;10.40;;;13.80;83.80;;;;;;5011505;28;20124;-82
2021/11/12 09:22:25;;;;;;;14.93;9.82;;;13.80;83.80;;;;;;5029129;28;20036;-81
2021/11/12 09:24:51;;;;;;;13.40;10.02;;;13.80;83.80;;;;;;5010850;28;20083;-82
2021/11/12 09:27:20;;;;;;;13.35;9.55;;;13.80;83.70;;;;;;5028521;28;20025;-83
2021/11/12 09:29:46;;;;;;;13.80;9.65;;;13.80;83.80;;;;;;5011440;28;20487;-82
2021/11/12 09:32:12;;;;;;;13.00;8.65;;;13.80;83.70;;;;;;5010184;28;20193;-80
2021/11/12 09:34:39;;;;;;;13.40;9.13;;;13.80;83.80;;;;;;5010932;28;20036;-82
2021/11/12 09:37:06;;;;;;;12.55;8.95;;;13.80;83.70;;;;;;5028715;28;20108;-81
2021/11/12 09:39:33;;;;;;;12.30;8.77;;;13.90;83.70;;;;;;5010684;28;20029;-81
2021/11/12 09:42:00;;;;;;;12.88;9.00;;;14.00;83.60;;;;;;5011066;28;20037;-81
2021/11/12 09:44:26;;;;;;;11.23;8.15;;;13.90;83.30;;;;;;5011229;28;20395;-80
2021/11/12 09:46:52;;;;;;;12.43;8.57;;;14.00;83.20;;;;;;5010707;28;20029;-81
2021/11/12 09:49:18;;;;;;;13.15;8.82;;;14.00;83.20;;;;;;5010681;28;20478;-81
2021/11/12 09:51:44;;;;;;;13.10;8.30;;;14.00;83.20;;;;;;5011070;28;20025;-82
2021/11/12 09:54:11;;;;;;;13.07;7.93;;;14.00;83.10;;;;;;5010769;28;20255;-82
2021/11/12 09:56:36;;;;;;;11.82;8.27;;;14.00;82.90;;;;;;5010704;28;20026;-82
2021/11/12 09:59:02;;;;;;;12.63;8.57;;;14.00;82.60;;;;;;5010690;28;20025;-81
2021/11/12 10:01:33;;;;;;;11.57;7.95;;;14.10;82.50;;;;;;5010620;28;20453;-82
2021/11/12 10:04:02;;;;;;;11.32;7.93;;;14.10;82.50;;;;;;5010591;28;20438;-82
2021/11/12 10:06:28;;;;;;;11.85;7.72;;;14.10;82.30;;;;;;5028017;28;20100;-82
2021/11/12 10:08:54;;;;;;;12.52;7.97;;;14.10;82.30;;;;;;5009896;28;20116;-83
2021/11/12 10:11:29;;;;;;;10.85;7.85;;;14.10;82.90;;;;;;5010661;28;20036;-82
2021/11/12 10:14:10;;;;;;;12.48;7.78;;;14.10;82.40;;;;;;5010521;28;20530;-82
2021/11/12 10:16:36;;;;;;;11.65;7.78;;;14.10;82.40;;;;;;5010175;28;20120;-80
2021/11/12 10:19:17;;;;;;;11.25;7.63;;;14.10;82.40;;;;;;5027910;28;20104;-82
2021/11/12 10:21:45;;;;;;;11.02;7.63;;;14.10;82.30;;;;;;5010094;28;20068;-83
2021/11/12 10:24:18;;;;;;;10.45;7.00;;;14.00;82.30;;;;;;5010030;28;20025;-80
2021/11/12 10:26:50;;;;;;;10.93;7.65;;;14.10;82.30;;;;;;5028077;28;20053;-82
2021/11/12 10:29:20;;;;;;;10.82;7.35;;;14.10;82.80;;;;;;5010172;28;20025;-82
2021/11/12 10:31:50;;;;;;;11.10;7.70;;;14.10;82.20;;;;;;5010337;28;20532;-82
2021/11/12 10:34:22;;;;;;;11.23;7.53;;;14.10;82.30;;;;;;5010006;28;20388;-83
2021/11/12 10:37:00;;;;;;;11.30;7.03;;;14.10;82.30;;;;;;5009618;28;20034;-82
2021/11/12 10:39:33;;;;;;;10.95;7.07;;;14.10;82.30;;;;;;5009682;28;20040;-81
2021/11/12 10:42:01;;;;;;;10.75;7.47;;;14.10;82.30;;;;;;5010096;28;20430;-82
2021/11/12 10:44:29;;;;;;;11.43;7.10;;;14.10;82.30;;;;;;5027424;28;20029;-82
2021/11/12 10:46:55;;;;;;;10.50;7.30;;;14.10;82.30;;;;;;5009487;28;20856;-81
2021/11/12 10:49:33;;;;;;;10.23;6.90;;;14.10;82.30;;;;;;5028002;28;20087;-82
2021/11/12 10:52:12;;;;;;;9.90;6.63;;;14.20;82.30;;;;;;5009916;28;20033;-82
2021/11/12 10:55:01;;;;;;;9.63;6.78;;;14.20;82.20;;;;;;5027953;28;20048;-80
2021/11/12 10:57:40;;;;;;;11.23;6.65;;;14.10;82.20;;;;;;5009390;28;20029;-80
2021/11/12 11:00:30;;;;;;;10.32;6.50;;;14.20;82.10;;;;;;5009984;28;20033;-80
2021/11/12 11:03:01;;;;;;;10.65;7.10;;;14.20;82.10;;;;;;5009832;28;20355;-81
2021/11/12 11:05:27;;;;;;;;;;;14.20;82.20;;;;;;5010096;28;20032;-81
2021/11/12 11:07:58;;;;;;;9.68;6.25;;;14.20;82.10;;;;;;5010067;28;19912;-82
2021/11/12 11:10:35;;;;;;;9.68;6.75;;;14.20;82.20;;;;;;5027479;28;20462;-82
2021/11/12 11:13:09;;;;;;;9.60;6.75;;;14.20;82.20;;;;;;5009838;28;20116;-82
2021/11/12 11:15:44;;;;;;;10.25;6.78;;;14.20;82.10;;;;;;5009610;28;20030;-82
2021/11/12 11:18:25;;;;;;;10.07;6.90;;;14.20;82.30;;;;;;5009416;28;20026;-79
2021/11/12 11:21:07;;;;;;;10.90;7.28;;;14.30;82.20;;;;;;5009423;28;20025;-80
2021/11/12 11:23:45;;;;;;;9.45;6.40;;;14.30;82.00;;;;;;5010276;28;20503;-82
2021/11/12 11:26:16;;;;;;;11.07;6.80;;;14.30;82.10;;;;;;5009634;28;20030;-81
2021/11/12 11:28:42;;;;;;;10.18;6.78;;;14.30;81.90;;;;;;5027706;28;20185;-81
2021/11/12 11:31:14;;;;;;;10.63;6.78;;;14.20;81.90;;;;;;5009785;28;20025;-82
2021/11/12 11:33:41;;;;;;;10.13;6.55;;;14.30;81.90;;;;;;5009715;28;20029;-82
2021/11/12 11:36:09;;;;;;;10.25;7.22;;;14.30;81.90;;;;;;5009361;28;20507;-81
2021/11/12 11:38:39;;;;;;;8.98;6.32;;;14.30;81.90;;;;;;5009511;28;20521;-80
2021/11/12 11:41:06;;;;;;;10.00;6.53;;;14.30;81.90;;;;;;5027046;28;20370;-80
2021/11/12 11:43:33;;;;;;;10.00;7.10;;;14.30;81.90;;;;;;5009121;28;20566;-82
2021/11/12 11:46:02;;;;;;;9.48;6.07;;;14.30;81.80;;;;;;5009023;28;20025;-80
2021/11/12 11:48:36;;;;;;;10.95;6.93;;;14.30;81.80;;;;;;5009304;28;20061;-80
2021/11/12 11:51:03;;;;;;;10.45;6.45;;;14.30;81.80;;;;;;5009563;28;20029;-81
2021/11/12 11:53:37;;;;;;;11.18;6.65;;;14.30;81.80;;;;;;5026871;28;20018;-80
2021/11/12 11:56:16;;;;;;;10.40;6.72;;;14.20;81.70;;;;;;5012058;28;20482;-82
2021/11/12 11:58:44;;;;;;;9.48;6.28;;;14.30;81.80;;;;;;5012803;28;20021;-82
2021/11/12 12:01:16;;;;;;;10.95;6.97;;;14.30;81.80;;;;;;5012895;28;20029;-79
2021/11/12 12:03:49;;;;;;;11.10;6.90;;;14.30;81.80;;;;;;5030866;28;20029;-80
2021/11/12 12:06:19;;;;;;;11.10;6.75;;;14.30;81.80;;;;;;5030218;28;20044;-82
2021/11/12 12:08:53;;;;;;;10.70;7.25;;;14.30;81.80;;;;;;5030296;28;20029;-80
2021/11/12 12:11:20;;;;;;;10.02;6.72;;;14.30;81.80;;;;;;5012879;28;20126;-81
2021/11/12 12:13:46;;;;;;;10.43;7.35;;;14.30;81.80;;;;;;5030280;28;20025;-81
2021/11/12 12:16:21;;;;;;;10.73;6.80;;;14.30;81.80;;;;;;5030640;28;20053;-82
2021/11/12 12:18:48;;;;;;;9.75;6.82;;;14.30;81.80;;;;;;5012562;28;20412;-81
2021/11/12 12:21:32;;;;;;;11.57;6.97;;;14.30;81.80;;;;;;5030107;28;20021;-82
2021/11/12 12:36:07;;;;;;;10.35;6.90;;;14.40;81.50;;;;;;5030080;28;20479;-81
2021/11/12 12:39:47;;;;;;;9.50;6.82;;;14.40;81.40;;;;;;5029714;28;20557;-79
2021/11/12 13:25:43;;;;;;;10.05;6.35;;;14.20;82.10;;;;;;5028712;28;20029;-83
2021/11/12 13:28:12;;;;;;;9.60;6.45;;;14.20;82.30;;;;;;5011224;28;20142;-82
2021/11/12 13:30:41;;;;;;;9.38;6.55;;;14.10;82.40;;;;;;5011181;28;20030;-82
2021/11/12 13:33:37;;;;;;;10.98;6.03;;;14.10;82.60;;;;;;5011145;28;20617;-83
2021/11/12 13:36:08;;;;;;;9.68;6.45;;;14.10;82.80;;;;;;5010979;28;20491;-83
2021/11/12 13:38:41;;;;;;;9.82;6.45;;;14.00;82.90;;;;;;5011372;28;20057;-83
2021/11/12 13:41:09;;;;;;;10.43;6.15;;;14.00;83.00;;;;;;5010480;28;20044;-84
2021/11/12 13:43:39;;;;;;;9.60;6.18;;;14.00;83.10;;;;;;5010760;28;20057;-79
2021/11/12 13:46:06;;;;;;;9.60;6.47;;;14.00;83.20;;;;;;5028609;28;20084;-82
2021/11/12 13:49:01;;;;;;;11.35;7.03;;;14.00;83.40;;;;;;5010536;28;20049;-80
2021/11/12 13:51:32;;;;;;;9.70;6.30;;;13.90;83.50;;;;;;4993045;28;20065;-81
2021/11/12 13:54:03;;;;;;;10.07;6.50;;;13.90;83.60;;;;;;5027553;28;20037;-83
2021/11/12 13:56:33;;;;;;;9.23;6.05;;;13.90;83.70;;;;;;5027499;28;20103;-82
2021/11/12 13:59:11;;;;;;;9.95;6.40;;;13.90;83.90;;;;;;5010501;28;20053;-83
2021/11/12 14:01:36;;;;;;;9.95;6.20;;;13.80;84.00;;;;;;5009877;28;20590;-78
2021/11/12 14:04:02;;;;;;;11.98;7.22;;;13.80;84.10;;;;;;5010427;28;20021;-83
2021/11/12 14:06:37;;;;;;;10.25;6.68;;;13.80;84.20;;;;;;5027870;28;20055;-82
2021/11/12 14:09:04;;;;;;;12.07;6.88;;;13.80;84.40;;;;;;5027955;28;20035;-83
2021/11/12 14:11:33;;;;;;;11.35;6.45;;;13.80;84.50;;;;;;5009961;28;20029;-81
2021/11/12 14:14:06;;;;;;;9.00;6.05;;;13.70;84.60;;;;;;5027858;28;20116;-83
2021/11/12 14:16:43;;;;;;;10.38;6.65;;;13.70;84.70;;;;;;5009692;28;20030;-82
2021/11/12 14:24:46;;;;;;;9.98;6.82;;;13.70;84.90;;;;;;5028155;28;20025;-83
2021/11/12 14:27:34;;;;;;;10.55;7.07;;;13.70;85.00;;;;;;5027116;28;20022;-82
2021/11/12 14:35:41;;;;;;;11.13;7.07;;;13.60;85.20;;;;;;5027384;28;20026;-83
2021/11/12 14:38:33;;;;;;;9.63;7.05;;;13.60;85.30;;;;;;5010247;28;20033;-83
2021/11/12 14:44:41;;;;;;;14.00;7.97;;;13.60;85.50;;;;;;5027899;28;20033;-81
2021/11/12 14:52:14;;;;;;;10.52;7.30;;;13.50;85.60;;;;;;5027877;28;20073;-83
2021/11/12 14:54:47;;;;;;;11.45;7.50;;;13.50;85.70;;;;;;5026642;28;20037;-83
2021/11/12 14:59:54;;;;;;;9.93;7.35;;;13.50;85.70;;;;;;5027842;28;20371;-83
2021/11/12 15:02:20;;;;;;;12.20;7.88;;;13.50;85.80;;;;;;5009333;28;20034;-83
2021/11/12 15:04:46;;;;;;;12.10;8.23;;;13.50;86.40;;;;;;5009295;28;20025;-83
2021/11/12 15:07:14;;;;;;;10.63;7.57;;;13.50;85.90;;;;;;5009457;28;20021;-82
2021/11/12 15:09:41;;;;;;;10.23;7.70;;;13.40;85.90;;;;;;5009682;28;20032;-83
2021/11/12 15:12:09;;;;;;;10.93;7.65;;;13.50;86.00;;;;;;5009139;28;20033;-81
2021/11/12 15:14:40;;;;;;;11.95;7.60;;;13.40;86.10;;;;;;5009402;28;20112;-83
2021/11/12 15:17:07;;;;;;;11.20;8.10;;;13.40;86.10;;;;;;5009293;28;20049;-84
2021/11/12 15:19:37;;;;;;;11.40;7.78;;;13.40;86.10;;;;;;5009467;28;20033;-83
2021/11/12 15:22:22;;;;;;;11.30;8.38;;;13.40;86.20;;;;;;5009310;28;20095;-83
2021/11/12 15:25:35;;;;;;;10.60;7.80;;;13.40;86.10;;;;;;5009097;28;20033;-84
2021/11/12 15:32:49;;;;;;;11.05;7.50;;;13.30;86.10;;;;;;5031023;28;20033;-83
2021/11/12 15:35:17;;;;;;;12.15;7.95;;;13.30;85.60;;;;;;5030781;28;20079;-83
2021/11/12 15:37:50;;;;;;;10.88;7.80;;;13.40;85.70;;;;;;5030729;28;20029;-83
2021/11/12 15:40:39;;;;;;;11.25;7.47;;;13.40;85.60;;;;;;5013164;28;20068;-83
2021/11/12 15:48:13;;;;;;;11.05;8.15;;;13.40;85.40;;;;;;5031330;28;20113;-84
2021/11/12 15:53:27;;;;;;;13.15;9.07;;;13.40;85.40;;;;;;5030857;28;20021;-83
2021/11/12 15:58:55;;;;;;;12.63;8.85;;;13.40;85.30;;;;;;5031092;28;20547;-84
2021/11/12 16:02:00;;;;;;;9.80;7.72;;;13.40;85.30;;;;;;5012102;28;20380;-83
2021/11/12 16:04:46;;;;;;;11.05;8.10;;;13.50;85.30;;;;;;5028886;28;20052;-83
2021/11/12 16:12:25;;;;;;;19.23;8.88;;;13.50;84.00;;;;;;5029242;28;20030;-81
2021/11/12 16:20:50;;;;;;;16.15;8.77;;;13.30;84.70;;;;;;5005586;28;20030;-83
2021/11/12 16:25:47;;;;;;;15.95;9.07;;;13.30;85.30;;;;;;5029198;28;20029;-82
2021/11/12 16:28:21;;;;;;;13.68;9.05;;;13.30;85.50;;;;;;5028954;28;20805;-81
2021/11/12 16:31:06;;;;;;;13.02;8.27;;;13.20;85.60;;;;;;5011572;28;20395;-83
2021/11/12 16:33:32;;;;;;;12.52;8.77;;;13.20;85.70;;;;;;5011205;28;20067;-82
2021/11/12 16:36:05;;;;;;;13.75;8.95;;;13.20;85.60;;;;;;5011147;28;20056;-83
2021/11/12 16:38:33;;;;;;;14.15;8.50;;;13.20;85.90;;;;;;5011387;28;20033;-83
2021/11/12 16:43:36;;;;;;;12.63;9.27;;;13.20;86.10;;;;;;5028896;28;20030;-81
2021/11/12 16:46:23;;;;;;;13.85;9.02;;;13.20;86.00;;;;;;5011223;28;20439;-82
2021/11/12 16:49:06;;;;;;;12.07;8.85;;;13.20;86.30;;;;;;5010996;28;20032;-80
2021/11/12 16:59:47;;;;;;;12.20;8.73;;;13.20;86.70;;;;;;4940792;28;20506;-82
2021/11/12 17:08:09;;;;;;;12.57;9.05;;;13.10;86.70;;;;;;4967476;28;20030;-82
2021/11/12 17:48:00;;;;;;;16.85;10.32;;;13.10;85.30;;;;;;5030309;28;20021;-81
2021/11/12 18:03:53;;;;;;;21.67;15.73;;;13.10;85.90;;;;;;5029705;28;20031;-83
2021/11/12 18:11:53;;;;;;;22.70;19.23;;;13.00;85.90;;;;;;5029991;28;20730;-81
2021/11/12 18:17:37;;;;;;;23.17;19.50;;;13.10;85.70;;;;;;5029703;28;20402;-83
2021/11/12 21:45:50;;;;;;;20.63;16.50;;;12.70;82.90;;;;;;5011280;28;20029;-81
2021/11/12 21:48:17;;;;;;;20.27;16.17;;;12.70;83.10;;;;;;4993704;28;20052;-83
2021/11/12 21:50:42;;;;;;;22.30;16.42;;;12.80;83.40;;;;;;4993527;28;20026;-83
2021/11/12 21:53:09;;;;;;;24.77;16.88;;;12.80;83.50;;;;;;4993292;28;20092;-82
2021/11/12 21:55:34;;;;;;;22.08;16.95;;;12.80;83.60;;;;;;4993044;28;20034;-81
2021/11/12 21:58:01;;;;;;;22.35;17.05;;;12.80;83.60;;;;;;4993201;28;20076;-82
2021/11/12 22:00:28;;;;;;;20.05;15.60;;;12.90;83.50;;;;;;4992837;28;20124;-83
2021/11/12 22:02:55;;;;;;;23.05;16.17;;;12.90;83.30;;;;;;4993492;28;20133;-82
2021/11/12 22:05:21;;;;;;;29.90;17.23;;;12.90;83.20;;;;;;4993209;28;20673;-82
2021/11/12 22:07:46;;;;;;;18.08;15.52;;;12.90;83.20;;;;;;4993213;28;20124;-82
2021/11/12 22:10:12;;;;;;;22.27;15.52;;;12.90;83.10;;;;;;4992706;28;20024;-82
2021/11/12 22:12:37;;;;;;;20.70;16.77;;;12.90;83.10;;;;;;4992734;28;20030;-81
2021/11/12 22:15:05;;;;;;;20.52;16.15;;;12.90;83.20;;;;;;4992919;28;20037;-82
2021/11/12 22:17:31;;;;;;;22.70;15.93;;;12.90;83.10;;;;;;4992927;28;20034;-83
2021/11/12 22:19:56;;;;;;;18.85;15.07;;;12.90;83.10;;;;;;4993168;28;20597;-81
2021/11/12 22:22:22;;;;;;;20.60;15.55;;;13.00;83.10;;;;;;4993258;28;20133;-82